sensor_id;sensor_type;location;lat;lon;timestamp;temperature;humidity
49132;DHT22;35149;51.196;6.204;2024-02-15T00:00:33;15.30;83.10
49132;DHT22;35149;51.196;6.204;2024-02-15T00:03:00;15.30;83.10
49132;DHT22;35149;51.196;6.204;2024-02-15T00:05:27;15.30;83.20
49132;DHT22;35149;51.196;6.204;2024-02-15T00:07:54;15.30;83.10
49132;DHT22;35149;51.196;6.204;2024-02-15T00:10:21;15.30;83.10
49132;DHT22;35149;51.196;6.204;2024-02-15T00:12:49;15.30;83.10
49132;DHT22;35149;51.196;6.204;2024-02-15T00:15:17;15.30;83.10
49132;DHT22;35149;51.196;6.204;2024-02-15T00:17:46;15.30;83.00
49132;DHT22;35149;51.196;6.204;2024-02-15T00:20:13;15.30;82.90
49132;DHT22;35149;51.196;6.204;2024-02-15T00:22:40;15.30;82.90
49132;DHT22;35149;51.196;6.204;2024-02-15T00:25:10;15.40;83.00
49132;DHT22;35149;51.196;6.204;2024-02-15T00:27:37;15.30;82.90
49132;DHT22;35149;51.196;6.204;2024-02-15T00:30:05;15.30;82.80
49132;DHT22;35149;51.196;6.204;2024-02-15T00:32:34;15.30;82.80
49132;DHT22;35149;51.196;6.204;2024-02-15T00:35:01;15.40;82.80
49132;DHT22;35149;51.196;6.204;2024-02-15T00:37:28;15.30;82.70
49132;DHT22;35149;51.196;6.204;2024-02-15T00:39:55;15.40;82.70
49132;DHT22;35149;51.196;6.204;2024-02-15T00:42:22;15.40;82.70
49132;DHT22;35149;51.196;6.204;2024-02-15T00:44:49;15.40;82.60
49132;DHT22;35149;51.196;6.204;2024-02-15T00:47:16;15.40;82.60
49132;DHT22;35149;51.196;6.204;2024-02-15T00:49:44;15.40;82.60
49132;DHT22;35149;51.196;6.204;2024-02-15T00:52:11;15.40;82.60
49132;DHT22;35149;51.196;6.204;2024-02-15T00:54:38;15.30;82.50
49132;DHT22;35149;51.196;6.204;2024-02-15T00:57:05;15.40;82.50
49132;DHT22;35149;51.196;6.204;2024-02-15T00:59:32;15.30;82.40
49132;DHT22;35149;51.196;6.204;2024-02-15T01:02:02;15.40;82.50
49132;DHT22;35149;51.196;6.204;2024-02-15T01:04:29;15.30;82.40
49132;DHT22;35149;51.196;6.204;2024-02-15T01:06:56;15.30;82.40
49132;DHT22;35149;51.196;6.204;2024-02-15T01:09:23;15.40;82.40
49132;DHT22;35149;51.196;6.204;2024-02-15T01:11:50;15.30;82.40
49132;DHT22;35149;51.196;6.204;2024-02-15T01:14:17;15.40;83.10
49132;DHT22;35149;51.196;6.204;2024-02-15T01:16:44;15.30;82.40
49132;DHT22;35149;51.196;6.204;2024-02-15T01:19:11;15.30;82.40
49132;DHT22;35149;51.196;6.204;2024-02-15T01:21:38;15.30;82.40
49132;DHT22;35149;51.196;6.204;2024-02-15T01:24:04;15.30;82.40
49132;DHT22;35149;51.196;6.204;2024-02-15T01:26:33;15.30;82.40
49132;DHT22;35149;51.196;6.204;2024-02-15T01:29:01;15.30;82.50
49132;DHT22;35149;51.196;6.204;2024-02-15T01:31:29;15.30;82.40
49132;DHT22;35149;51.196;6.204;2024-02-15T01:33:56;15.30;82.50
49132;DHT22;35149;51.196;6.204;2024-02-15T01:36:23;15.30;82.40
49132;DHT22;35149;51.196;6.204;2024-02-15T01:38:51;15.30;82.40
49132;DHT22;35149;51.196;6.204;2024-02-15T01:41:18;15.30;82.40
49132;DHT22;35149;51.196;6.204;2024-02-15T01:43:45;15.30;82.40
49132;DHT22;35149;51.196;6.204;2024-02-15T01:46:12;15.40;82.40
49132;DHT22;35149;51.196;6.204;2024-02-15T01:48:40;15.30;82.40
49132;DHT22;35149;51.196;6.204;2024-02-15T01:51:10;15.40;82.40
49132;DHT22;35149;51.196;6.204;2024-02-15T01:53:37;15.40;82.30
49132;DHT22;35149;51.196;6.204;2024-02-15T01:56:05;15.40;82.30
49132;DHT22;35149;51.196;6.204;2024-02-15T01:58:32;15.40;82.20
49132;DHT22;35149;51.196;6.204;2024-02-15T02:01:00;15.40;82.10
49132;DHT22;35149;51.196;6.204;2024-02-15T02:03:27;15.30;82.00
49132;DHT22;35149;51.196;6.204;2024-02-15T02:05:54;15.30;82.00
49132;DHT22;35149;51.196;6.204;2024-02-15T02:08:22;15.40;82.00
49132;DHT22;35149;51.196;6.204;2024-02-15T02:10:49;15.30;81.90
49132;DHT22;35149;51.196;6.204;2024-02-15T02:13:16;15.30;82.00
49132;DHT22;35149;51.196;6.204;2024-02-15T02:15:43;15.30;82.00
49132;DHT22;35149;51.196;6.204;2024-02-15T02:18:10;15.30;82.00
49132;DHT22;35149;51.196;6.204;2024-02-15T02:20:37;15.30;82.00
49132;DHT22;35149;51.196;6.204;2024-02-15T02:23:14;15.30;82.00
49132;DHT22;35149;51.196;6.204;2024-02-15T02:25:42;15.30;82.10
49132;DHT22;35149;51.196;6.204;2024-02-15T02:28:10;15.30;81.90
49132;DHT22;35149;51.196;6.204;2024-02-15T02:30:37;15.40;82.00
49132;DHT22;35149;51.196;6.204;2024-02-15T02:33:11;15.20;82.00
49132;DHT22;35149;51.196;6.204;2024-02-15T02:35:45;15.20;82.00
49132;DHT22;35149;51.196;6.204;2024-02-15T02:38:12;15.20;81.90
49132;DHT22;35149;51.196;6.204;2024-02-15T02:40:39;15.20;81.90
49132;DHT22;35149;51.196;6.204;2024-02-15T02:43:06;15.20;81.90
49132;DHT22;35149;51.196;6.204;2024-02-15T02:45:33;15.20;81.80
49132;DHT22;35149;51.196;6.204;2024-02-15T02:48:00;15.20;81.90
49132;DHT22;35149;51.196;6.204;2024-02-15T02:50:27;15.20;81.90
49132;DHT22;35149;51.196;6.204;2024-02-15T02:52:53;15.20;82.00
49132;DHT22;35149;51.196;6.204;2024-02-15T02:55:20;15.20;82.10
49132;DHT22;35149;51.196;6.204;2024-02-15T02:57:47;15.20;82.00
49132;DHT22;35149;51.196;6.204;2024-02-15T03:00:15;15.20;82.00
49132;DHT22;35149;51.196;6.204;2024-02-15T03:02:43;15.20;82.10
49132;DHT22;35149;51.196;6.204;2024-02-15T03:05:10;15.20;82.10
49132;DHT22;35149;51.196;6.204;2024-02-15T03:07:39;15.20;82.00
49132;DHT22;35149;51.196;6.204;2024-02-15T03:10:09;15.20;82.00
49132;DHT22;35149;51.196;6.204;2024-02-15T03:12:37;15.20;82.00
49132;DHT22;35149;51.196;6.204;2024-02-15T03:15:05;15.20;82.00
49132;DHT22;35149;51.196;6.204;2024-02-15T03:17:39;15.20;82.00
49132;DHT22;35149;51.196;6.204;2024-02-15T03:20:10;15.20;81.90
49132;DHT22;35149;51.196;6.204;2024-02-15T03:22:55;15.20;81.90
49132;DHT22;35149;51.196;6.204;2024-02-15T03:25:23;15.30;81.90
49132;DHT22;35149;51.196;6.204;2024-02-15T03:27:51;15.30;81.90
49132;DHT22;35149;51.196;6.204;2024-02-15T03:30:19;15.30;81.80
49132;DHT22;35149;51.196;6.204;2024-02-15T03:32:46;15.30;81.80
49132;DHT22;35149;51.196;6.204;2024-02-15T03:35:19;15.30;81.70
49132;DHT22;35149;51.196;6.204;2024-02-15T03:37:46;15.30;81.60
49132;DHT22;35149;51.196;6.204;2024-02-15T03:40:13;15.30;81.60
49132;DHT22;35149;51.196;6.204;2024-02-15T03:42:40;15.30;81.60
49132;DHT22;35149;51.196;6.204;2024-02-15T03:45:08;15.30;81.50
49132;DHT22;35149;51.196;6.204;2024-02-15T03:47:35;15.30;81.40
49132;DHT22;35149;51.196;6.204;2024-02-15T03:50:06;15.40;81.30
49132;DHT22;35149;51.196;6.204;2024-02-15T03:52:35;15.40;81.30
49132;DHT22;35149;51.196;6.204;2024-02-15T03:55:01;15.40;81.30
49132;DHT22;35149;51.196;6.204;2024-02-15T03:57:28;15.40;81.10
49132;DHT22;35149;51.196;6.204;2024-02-15T03:59:55;15.50;81.00
49132;DHT22;35149;51.196;6.204;2024-02-15T04:02:26;15.40;80.80
49132;DHT22;35149;51.196;6.204;2024-02-15T04:04:53;15.40;80.70
49132;DHT22;35149;51.196;6.204;2024-02-15T04:07:22;15.60;80.70
49132;DHT22;35149;51.196;6.204;2024-02-15T04:09:49;15.40;80.50
49132;DHT22;35149;51.196;6.204;2024-02-15T04:12:16;15.40;80.50
49132;DHT22;35149;51.196;6.204;2024-02-15T04:14:44;15.50;80.50
49132;DHT22;35149;51.196;6.204;2024-02-15T04:17:12;15.40;80.40
49132;DHT22;35149;51.196;6.204;2024-02-15T04:19:40;15.50;80.40
49132;DHT22;35149;51.196;6.204;2024-02-15T04:22:07;15.50;80.30
49132;DHT22;35149;51.196;6.204;2024-02-15T04:24:34;15.50;80.30
49132;DHT22;35149;51.196;6.204;2024-02-15T04:27:01;15.50;80.20
49132;DHT22;35149;51.196;6.204;2024-02-15T04:29:28;15.50;80.20
49132;DHT22;35149;51.196;6.204;2024-02-15T04:31:55;15.50;80.10
49132;DHT22;35149;51.196;6.204;2024-02-15T04:34:22;15.50;80.00
49132;DHT22;35149;51.196;6.204;2024-02-15T04:36:49;15.60;80.00
49132;DHT22;35149;51.196;6.204;2024-02-15T04:39:22;15.50;79.90
49132;DHT22;35149;51.196;6.204;2024-02-15T04:41:53;15.60;79.90
49132;DHT22;35149;51.196;6.204;2024-02-15T04:44:22;15.60;79.90
49132;DHT22;35149;51.196;6.204;2024-02-15T04:46:54;15.60;79.90
49132;DHT22;35149;51.196;6.204;2024-02-15T04:49:21;15.60;79.90
49132;DHT22;35149;51.196;6.204;2024-02-15T04:51:49;15.60;79.90
49132;DHT22;35149;51.196;6.204;2024-02-15T04:54:16;15.60;80.00
49132;DHT22;35149;51.196;6.204;2024-02-15T04:56:44;15.60;80.00
49132;DHT22;35149;51.196;6.204;2024-02-15T04:59:12;15.60;80.00
49132;DHT22;35149;51.196;6.204;2024-02-15T05:01:42;15.50;80.00
49132;DHT22;35149;51.196;6.204;2024-02-15T05:04:13;15.60;80.00
49132;DHT22;35149;51.196;6.204;2024-02-15T05:06:40;15.60;80.10
49132;DHT22;35149;51.196;6.204;2024-02-15T05:09:07;15.50;80.10
49132;DHT22;35149;51.196;6.204;2024-02-15T05:11:37;15.50;80.10
49132;DHT22;35149;51.196;6.204;2024-02-15T05:14:08;15.50;80.10
49132;DHT22;35149;51.196;6.204;2024-02-15T05:16:37;15.50;80.00
49132;DHT22;35149;51.196;6.204;2024-02-15T05:19:09;15.50;80.20
49132;DHT22;35149;51.196;6.204;2024-02-15T05:21:39;15.50;80.10
49132;DHT22;35149;51.196;6.204;2024-02-15T05:24:07;15.50;80.10
49132;DHT22;35149;51.196;6.204;2024-02-15T05:26:34;15.50;80.10
49132;DHT22;35149;51.196;6.204;2024-02-15T05:29:00;15.50;80.20
49132;DHT22;35149;51.196;6.204;2024-02-15T05:31:27;15.50;80.20
49132;DHT22;35149;51.196;6.204;2024-02-15T05:33:54;15.40;80.20
49132;DHT22;35149;51.196;6.204;2024-02-15T05:36:22;15.40;80.20
49132;DHT22;35149;51.196;6.204;2024-02-15T05:38:53;15.50;80.40
49132;DHT22;35149;51.196;6.204;2024-02-15T05:41:20;15.50;80.60
49132;DHT22;35149;51.196;6.204;2024-02-15T05:43:48;15.40;80.50
49132;DHT22;35149;51.196;6.204;2024-02-15T05:46:15;15.40;80.60
49132;DHT22;35149;51.196;6.204;2024-02-15T05:48:41;15.40;80.70
49132;DHT22;35149;51.196;6.204;2024-02-15T05:51:09;15.40;80.80
49132;DHT22;35149;51.196;6.204;2024-02-15T05:53:36;15.40;80.80
49132;DHT22;35149;51.196;6.204;2024-02-15T05:56:07;15.40;80.90
49132;DHT22;35149;51.196;6.204;2024-02-15T05:58:34;15.40;80.90
49132;DHT22;35149;51.196;6.204;2024-02-15T06:01:03;15.40;81.00
49132;DHT22;35149;51.196;6.204;2024-02-15T06:03:32;15.40;81.10
49132;DHT22;35149;51.196;6.204;2024-02-15T06:06:01;15.40;81.10
49132;DHT22;35149;51.196;6.204;2024-02-15T06:08:29;15.40;81.10
49132;DHT22;35149;51.196;6.204;2024-02-15T06:10:59;15.40;81.10
49132;DHT22;35149;51.196;6.204;2024-02-15T06:13:26;15.40;81.20
49132;DHT22;35149;51.196;6.204;2024-02-15T06:15:53;15.40;81.10
49132;DHT22;35149;51.196;6.204;2024-02-15T06:18:25;15.40;81.10
49132;DHT22;35149;51.196;6.204;2024-02-15T06:20:58;15.30;81.10
49132;DHT22;35149;51.196;6.204;2024-02-15T06:23:26;15.30;81.00
49132;DHT22;35149;51.196;6.204;2024-02-15T06:25:56;15.40;81.10
49132;DHT22;35149;51.196;6.204;2024-02-15T06:28:24;15.30;81.00
49132;DHT22;35149;51.196;6.204;2024-02-15T06:31:11;15.40;81.20
49132;DHT22;35149;51.196;6.204;2024-02-15T06:33:56;15.40;81.10
49132;DHT22;35149;51.196;6.204;2024-02-15T06:36:47;15.40;81.00
49132;DHT22;35149;51.196;6.204;2024-02-15T06:39:33;15.40;81.10
49132;DHT22;35149;51.196;6.204;2024-02-15T06:42:14;15.40;81.00
49132;DHT22;35149;51.196;6.204;2024-02-15T06:44:44;15.40;81.10
49132;DHT22;35149;51.196;6.204;2024-02-15T06:47:12;15.40;81.10
49132;DHT22;35149;51.196;6.204;2024-02-15T06:49:39;15.40;81.20
49132;DHT22;35149;51.196;6.204;2024-02-15T06:52:07;15.40;81.20
49132;DHT22;35149;51.196;6.204;2024-02-15T06:54:38;15.40;81.30
49132;DHT22;35149;51.196;6.204;2024-02-15T06:57:06;15.40;81.30
49132;DHT22;35149;51.196;6.204;2024-02-15T06:59:33;15.40;81.20
49132;DHT22;35149;51.196;6.204;2024-02-15T07:02:01;15.40;81.20
49132;DHT22;35149;51.196;6.204;2024-02-15T07:04:28;15.50;81.30
49132;DHT22;35149;51.196;6.204;2024-02-15T07:06:56;15.40;81.30
49132;DHT22;35149;51.196;6.204;2024-02-15T07:09:23;15.50;81.90
49132;DHT22;35149;51.196;6.204;2024-02-15T07:11:51;15.50;81.30
49132;DHT22;35149;51.196;6.204;2024-02-15T07:14:19;15.40;81.30
49132;DHT22;35149;51.196;6.204;2024-02-15T07:16:47;15.40;81.30
49132;DHT22;35149;51.196;6.204;2024-02-15T07:19:14;15.40;81.30
49132;DHT22;35149;51.196;6.204;2024-02-15T07:21:42;15.40;81.30
49132;DHT22;35149;51.196;6.204;2024-02-15T07:24:10;15.40;81.50
49132;DHT22;35149;51.196;6.204;2024-02-15T07:26:37;15.40;81.50
49132;DHT22;35149;51.196;6.204;2024-02-15T07:29:04;15.40;82.20
49132;DHT22;35149;51.196;6.204;2024-02-15T07:31:34;15.40;81.60
49132;DHT22;35149;51.196;6.204;2024-02-15T07:34:02;15.40;81.70
49132;DHT22;35149;51.196;6.204;2024-02-15T07:36:30;15.40;81.80
49132;DHT22;35149;51.196;6.204;2024-02-15T07:38:57;15.40;82.40
49132;DHT22;35149;51.196;6.204;2024-02-15T07:41:29;15.40;81.80
49132;DHT22;35149;51.196;6.204;2024-02-15T07:43:55;15.40;81.80
49132;DHT22;35149;51.196;6.204;2024-02-15T07:46:24;15.40;81.80
49132;DHT22;35149;51.196;6.204;2024-02-15T07:48:51;15.40;81.80
49132;DHT22;35149;51.196;6.204;2024-02-15T07:51:19;15.40;81.90
49132;DHT22;35149;51.196;6.204;2024-02-15T07:53:48;15.40;82.00
49132;DHT22;35149;51.196;6.204;2024-02-15T07:56:16;15.50;82.00
49132;DHT22;35149;51.196;6.204;2024-02-15T07:58:45;15.50;82.00
49132;DHT22;35149;51.196;6.204;2024-02-15T08:01:19;15.50;82.00
49132;DHT22;35149;51.196;6.204;2024-02-15T08:03:52;15.60;82.10
49132;DHT22;35149;51.196;6.204;2024-02-15T08:06:20;15.60;82.10
49132;DHT22;35149;51.196;6.204;2024-02-15T08:08:47;15.50;82.00
49132;DHT22;35149;51.196;6.204;2024-02-15T08:11:15;15.60;82.00
49132;DHT22;35149;51.196;6.204;2024-02-15T08:13:49;15.60;82.00
49132;DHT22;35149;51.196;6.204;2024-02-15T08:16:18;15.70;82.00
49132;DHT22;35149;51.196;6.204;2024-02-15T08:18:46;15.70;82.00
49132;DHT22;35149;51.196;6.204;2024-02-15T08:21:13;15.70;82.00
49132;DHT22;35149;51.196;6.204;2024-02-15T08:23:41;15.70;82.00
49132;DHT22;35149;51.196;6.204;2024-02-15T08:26:08;15.70;82.00
49132;DHT22;35149;51.196;6.204;2024-02-15T08:28:37;15.70;82.00
49132;DHT22;35149;51.196;6.204;2024-02-15T08:31:04;15.80;81.90
49132;DHT22;35149;51.196;6.204;2024-02-15T08:33:31;15.80;81.80
49132;DHT22;35149;51.196;6.204;2024-02-15T08:35:59;15.80;81.80
49132;DHT22;35149;51.196;6.204;2024-02-15T08:38:29;15.90;81.80
49132;DHT22;35149;51.196;6.204;2024-02-15T08:40:55;15.90;81.70
49132;DHT22;35149;51.196;6.204;2024-02-15T08:43:22;16.00;81.60
49132;DHT22;35149;51.196;6.204;2024-02-15T08:45:49;16.00;81.60
49132;DHT22;35149;51.196;6.204;2024-02-15T08:48:17;16.00;81.60
49132;DHT22;35149;51.196;6.204;2024-02-15T08:50:46;16.10;81.60
49132;DHT22;35149;51.196;6.204;2024-02-15T08:53:13;16.10;81.50
49132;DHT22;35149;51.196;6.204;2024-02-15T08:55:42;16.10;81.40
49132;DHT22;35149;51.196;6.204;2024-02-15T08:58:08;16.20;81.40
49132;DHT22;35149;51.196;6.204;2024-02-15T09:00:36;16.20;81.30
49132;DHT22;35149;51.196;6.204;2024-02-15T09:03:07;16.20;81.20
49132;DHT22;35149;51.196;6.204;2024-02-15T09:05:34;16.30;81.10
49132;DHT22;35149;51.196;6.204;2024-02-15T09:08:01;16.30;81.10
49132;DHT22;35149;51.196;6.204;2024-02-15T09:10:31;16.30;81.00
49132;DHT22;35149;51.196;6.204;2024-02-15T09:12:58;16.30;81.00
49132;DHT22;35149;51.196;6.204;2024-02-15T09:15:24;16.30;80.90
49132;DHT22;35149;51.196;6.204;2024-02-15T09:17:51;16.40;81.00
49132;DHT22;35149;51.196;6.204;2024-02-15T09:20:21;16.40;81.00
49132;DHT22;35149;51.196;6.204;2024-02-15T09:22:49;16.40;81.00
49132;DHT22;35149;51.196;6.204;2024-02-15T09:25:20;16.50;81.10
49132;DHT22;35149;51.196;6.204;2024-02-15T09:27:47;16.50;81.10
49132;DHT22;35149;51.196;6.204;2024-02-15T09:30:14;16.60;81.00
49132;DHT22;35149;51.196;6.204;2024-02-15T09:32:42;16.60;81.00
49132;DHT22;35149;51.196;6.204;2024-02-15T09:35:11;16.60;80.90
49132;DHT22;35149;51.196;6.204;2024-02-15T09:37:48;16.70;80.70
49132;DHT22;35149;51.196;6.204;2024-02-15T09:40:17;16.80;80.50
49132;DHT22;35149;51.196;6.204;2024-02-15T09:42:45;16.80;80.60
49132;DHT22;35149;51.196;6.204;2024-02-15T09:45:13;16.90;80.50
49132;DHT22;35149;51.196;6.204;2024-02-15T09:47:42;17.00;80.30
49132;DHT22;35149;51.196;6.204;2024-02-15T09:50:14;17.00;80.20
49132;DHT22;35149;51.196;6.204;2024-02-15T09:52:51;17.10;80.00
49132;DHT22;35149;51.196;6.204;2024-02-15T09:55:19;17.10;79.50
49132;DHT22;35149;51.196;6.204;2024-02-15T09:57:46;17.20;79.40
49132;DHT22;35149;51.196;6.204;2024-02-15T10:00:14;17.20;79.40
49132;DHT22;35149;51.196;6.204;2024-02-15T10:02:52;17.20;79.40
49132;DHT22;35149;51.196;6.204;2024-02-15T10:05:22;17.30;79.10
49132;DHT22;35149;51.196;6.204;2024-02-15T10:07:49;17.30;79.10
49132;DHT22;35149;51.196;6.204;2024-02-15T10:10:23;17.40;79.10
49132;DHT22;35149;51.196;6.204;2024-02-15T10:12:53;17.40;78.70
49132;DHT22;35149;51.196;6.204;2024-02-15T10:15:39;17.50;78.60
49132;DHT22;35149;51.196;6.204;2024-02-15T10:18:08;17.60;78.30
49132;DHT22;35149;51.196;6.204;2024-02-15T10:20:41;17.60;78.00
49132;DHT22;35149;51.196;6.204;2024-02-15T10:23:15;17.70;77.80
49132;DHT22;35149;51.196;6.204;2024-02-15T10:25:45;17.80;77.80
49132;DHT22;35149;51.196;6.204;2024-02-15T10:28:14;17.80;77.70
49132;DHT22;35149;51.196;6.204;2024-02-15T10:30:43;17.90;77.40
49132;DHT22;35149;51.196;6.204;2024-02-15T10:33:19;17.90;77.00
49132;DHT22;35149;51.196;6.204;2024-02-15T10:35:48;18.00;76.80
49132;DHT22;35149;51.196;6.204;2024-02-15T10:38:15;18.00;76.50
49132;DHT22;35149;51.196;6.204;2024-02-15T10:40:46;18.10;76.30
49132;DHT22;35149;51.196;6.204;2024-02-15T10:43:13;18.20;75.90
49132;DHT22;35149;51.196;6.204;2024-02-15T10:45:42;18.30;75.80
49132;DHT22;35149;51.196;6.204;2024-02-15T10:48:09;18.20;75.40
49132;DHT22;35149;51.196;6.204;2024-02-15T10:50:40;18.30;75.30
49132;DHT22;35149;51.196;6.204;2024-02-15T10:56:06;18.40;74.00
49132;DHT22;35149;51.196;6.204;2024-02-15T10:58:46;18.50;73.50
49132;DHT22;35149;51.196;6.204;2024-02-15T11:01:17;18.50;73.60
49132;DHT22;35149;51.196;6.204;2024-02-15T11:03:51;18.50;73.70
49132;DHT22;35149;51.196;6.204;2024-02-15T11:06:21;18.60;73.60
49132;DHT22;35149;51.196;6.204;2024-02-15T11:08:51;18.60;73.60
49132;DHT22;35149;51.196;6.204;2024-02-15T11:11:18;18.60;73.30
49132;DHT22;35149;51.196;6.204;2024-02-15T11:13:46;18.60;72.90
49132;DHT22;35149;51.196;6.204;2024-02-15T11:16:40;18.60;72.70
49132;DHT22;35149;51.196;6.204;2024-02-15T11:19:07;18.70;71.40
49132;DHT22;35149;51.196;6.204;2024-02-15T11:21:53;18.70;72.10
49132;DHT22;35149;51.196;6.204;2024-02-15T11:24:32;18.80;71.70
49132;DHT22;35149;51.196;6.204;2024-02-15T11:26:59;18.80;71.50
49132;DHT22;35149;51.196;6.204;2024-02-15T11:29:52;18.90;71.80
49132;DHT22;35149;51.196;6.204;2024-02-15T11:32:42;18.90;70.80
49132;DHT22;35149;51.196;6.204;2024-02-15T11:35:15;19.00;70.50
49132;DHT22;35149;51.196;6.204;2024-02-15T11:40:17;19.10;69.70
49132;DHT22;35149;51.196;6.204;2024-02-15T11:42:44;19.10;70.50
49132;DHT22;35149;51.196;6.204;2024-02-15T11:45:12;19.20;70.20
49132;DHT22;35149;51.196;6.204;2024-02-15T11:47:40;19.20;69.80
49132;DHT22;35149;51.196;6.204;2024-02-15T11:50:10;19.20;69.70
49132;DHT22;35149;51.196;6.204;2024-02-15T11:52:40;19.20;69.20
49132;DHT22;35149;51.196;6.204;2024-02-15T11:55:09;19.30;68.90
49132;DHT22;35149;51.196;6.204;2024-02-15T11:57:40;19.30;68.60
49132;DHT22;35149;51.196;6.204;2024-02-15T12:00:26;19.40;68.40
49132;DHT22;35149;51.196;6.204;2024-02-15T12:03:14;19.40;67.60
49132;DHT22;35149;51.196;6.204;2024-02-15T12:06:00;19.50;68.40
49132;DHT22;35149;51.196;6.204;2024-02-15T12:08:46;19.50;68.30
49132;DHT22;35149;51.196;6.204;2024-02-15T12:11:32;19.50;68.30
49132;DHT22;35149;51.196;6.204;2024-02-15T12:14:18;19.60;68.40
49132;DHT22;35149;51.196;6.204;2024-02-15T12:17:11;19.70;67.80
49132;DHT22;35149;51.196;6.204;2024-02-15T12:20:01;19.80;67.30
49132;DHT22;35149;51.196;6.204;2024-02-15T12:22:40;19.80;67.30
49132;DHT22;35149;51.196;6.204;2024-02-15T12:25:07;19.80;66.00
49132;DHT22;35149;51.196;6.204;2024-02-15T12:27:44;19.90;66.20
49132;DHT22;35149;51.196;6.204;2024-02-15T12:30:18;19.90;66.40
49132;DHT22;35149;51.196;6.204;2024-02-15T12:32:49;19.90;65.50
49132;DHT22;35149;51.196;6.204;2024-02-15T12:35:20;20.00;66.10
49132;DHT22;35149;51.196;6.204;2024-02-15T12:40:32;20.00;65.30
49132;DHT22;35149;51.196;6.204;2024-02-15T12:42:59;20.00;64.90
49132;DHT22;35149;51.196;6.204;2024-02-15T12:45:26;20.10;65.30
49132;DHT22;35149;51.196;6.204;2024-02-15T12:47:55;20.10;64.80
49132;DHT22;35149;51.196;6.204;2024-02-15T12:50:27;20.20;64.70
49132;DHT22;35149;51.196;6.204;2024-02-15T12:52:55;20.20;64.50
49132;DHT22;35149;51.196;6.204;2024-02-15T12:55:23;20.20;64.40
49132;DHT22;35149;51.196;6.204;2024-02-15T12:57:54;20.30;64.30
49132;DHT22;35149;51.196;6.204;2024-02-15T13:00:25;20.30;64.00
49132;DHT22;35149;51.196;6.204;2024-02-15T13:02:55;20.30;63.70
49132;DHT22;35149;51.196;6.204;2024-02-15T13:05:25;20.40;64.70
49132;DHT22;35149;51.196;6.204;2024-02-15T13:07:54;20.50;64.10
49132;DHT22;35149;51.196;6.204;2024-02-15T13:10:37;20.50;64.10
49132;DHT22;35149;51.196;6.204;2024-02-15T13:13:06;20.60;63.90
49132;DHT22;35149;51.196;6.204;2024-02-15T13:15:32;20.60;63.60
49132;DHT22;35149;51.196;6.204;2024-02-15T13:18:01;20.70;63.90
49132;DHT22;35149;51.196;6.204;2024-02-15T13:20:31;20.70;63.10
49132;DHT22;35149;51.196;6.204;2024-02-15T13:23:04;20.80;62.90
49132;DHT22;35149;51.196;6.204;2024-02-15T13:25:42;20.80;62.30
49132;DHT22;35149;51.196;6.204;2024-02-15T13:28:10;20.90;62.60
49132;DHT22;35149;51.196;6.204;2024-02-15T13:30:39;20.90;62.60
49132;DHT22;35149;51.196;6.204;2024-02-15T13:33:07;21.00;62.80
49132;DHT22;35149;51.196;6.204;2024-02-15T13:35:34;21.00;62.30
49132;DHT22;35149;51.196;6.204;2024-02-15T13:38:03;21.00;61.70
49132;DHT22;35149;51.196;6.204;2024-02-15T13:40:30;21.10;61.30
49132;DHT22;35149;51.196;6.204;2024-02-15T13:42:59;21.00;61.10
49132;DHT22;35149;51.196;6.204;2024-02-15T13:48:00;21.00;60.30
49132;DHT22;35149;51.196;6.204;2024-02-15T13:50:31;21.00;61.30
49132;DHT22;35149;51.196;6.204;2024-02-15T13:53:00;20.90;61.20
49132;DHT22;35149;51.196;6.204;2024-02-15T13:55:27;20.90;61.30
49132;DHT22;35149;51.196;6.204;2024-02-15T13:57:55;20.90;61.30
49132;DHT22;35149;51.196;6.204;2024-02-15T14:00:24;20.90;61.40
49132;DHT22;35149;51.196;6.204;2024-02-15T14:02:58;20.90;61.40
49132;DHT22;35149;51.196;6.204;2024-02-15T14:05:26;20.90;61.70
49132;DHT22;35149;51.196;6.204;2024-02-15T14:07:57;20.90;61.80
49132;DHT22;35149;51.196;6.204;2024-02-15T14:10:26;20.90;61.50
49132;DHT22;35149;51.196;6.204;2024-02-15T14:12:54;20.90;62.10
49132;DHT22;35149;51.196;6.204;2024-02-15T14:15:32;20.90;61.80
49132;DHT22;35149;51.196;6.204;2024-02-15T14:18:11;20.90;61.50
49132;DHT22;35149;51.196;6.204;2024-02-15T14:20:42;20.90;61.20
49132;DHT22;35149;51.196;6.204;2024-02-15T14:23:10;20.90;61.10
49132;DHT22;35149;51.196;6.204;2024-02-15T14:25:40;20.90;60.80
49132;DHT22;35149;51.196;6.204;2024-02-15T14:28:07;20.90;60.60
49132;DHT22;35149;51.196;6.204;2024-02-15T14:30:35;20.80;60.60
49132;DHT22;35149;51.196;6.204;2024-02-15T14:33:21;20.80;61.00
49132;DHT22;35149;51.196;6.204;2024-02-15T14:35:50;20.90;61.00
49132;DHT22;35149;51.196;6.204;2024-02-15T14:38:19;20.70;61.00
49132;DHT22;35149;51.196;6.204;2024-02-15T14:40:49;20.60;61.00
49132;DHT22;35149;51.196;6.204;2024-02-15T14:43:27;20.60;61.00
49132;DHT22;35149;51.196;6.204;2024-02-15T14:45:55;20.60;61.50
49132;DHT22;35149;51.196;6.204;2024-02-15T14:48:24;20.50;61.80
49132;DHT22;35149;51.196;6.204;2024-02-15T14:50:52;20.40;62.20
49132;DHT22;35149;51.196;6.204;2024-02-15T14:53:20;20.30;62.30
49132;DHT22;35149;51.196;6.204;2024-02-15T14:55:47;20.20;62.40
49132;DHT22;35149;51.196;6.204;2024-02-15T14:58:15;20.20;62.70
49132;DHT22;35149;51.196;6.204;2024-02-15T15:00:44;20.10;63.10
49132;DHT22;35149;51.196;6.204;2024-02-15T15:03:12;20.10;63.80
49132;DHT22;35149;51.196;6.204;2024-02-15T15:05:43;20.00;64.10
49132;DHT22;35149;51.196;6.204;2024-02-15T15:08:29;20.00;64.30
49132;DHT22;35149;51.196;6.204;2024-02-15T15:11:15;20.00;64.40
49132;DHT22;35149;51.196;6.204;2024-02-15T15:14:00;20.00;64.60
49132;DHT22;35149;51.196;6.204;2024-02-15T15:16:29;19.90;64.40
49132;DHT22;35149;51.196;6.204;2024-02-15T15:18:57;19.90;64.50
49132;DHT22;35149;51.196;6.204;2024-02-15T15:21:24;19.90;64.60
49132;DHT22;35149;51.196;6.204;2024-02-15T15:23:54;19.90;64.50
49132;DHT22;35149;51.196;6.204;2024-02-15T15:26:22;19.90;64.60
49132;DHT22;35149;51.196;6.204;2024-02-15T15:28:49;19.80;64.70
49132;DHT22;35149;51.196;6.204;2024-02-15T15:31:17;19.80;64.90
49132;DHT22;35149;51.196;6.204;2024-02-15T15:33:46;19.80;64.90
49132;DHT22;35149;51.196;6.204;2024-02-15T15:36:14;19.80;65.10
49132;DHT22;35149;51.196;6.204;2024-02-15T15:38:44;19.90;64.90
49132;DHT22;35149;51.196;6.204;2024-02-15T15:41:12;20.00;64.90
49132;DHT22;35149;51.196;6.204;2024-02-15T15:43:38;20.00;64.70
49132;DHT22;35149;51.196;6.204;2024-02-15T15:46:05;20.20;64.20
49132;DHT22;35149;51.196;6.204;2024-02-15T15:48:32;20.30;64.00
49132;DHT22;35149;51.196;6.204;2024-02-15T15:51:00;20.50;63.90
49132;DHT22;35149;51.196;6.204;2024-02-15T15:53:28;20.70;63.70
49132;DHT22;35149;51.196;6.204;2024-02-15T15:55:55;20.90;63.10